createdAt,value
2022-08-03T00:02:20.093Z,14.32
2022-08-03T00:04:48.683Z,15.18
2022-08-03T00:07:16.991Z,13.50
2022-08-03T00:09:45.358Z,16.65
2022-08-03T00:12:13.830Z,14.73
2022-08-03T00:14:42.062Z,12.93
2022-08-03T00:17:11.517Z,17.00
2022-08-03T00:19:39.651Z,21.35
2022-08-03T00:22:07.761Z,16.38
2022-08-03T00:24:36.414Z,17.40
2022-08-03T00:27:04.536Z,15.55
2022-08-03T00:29:32.581Z,17.98
2022-08-03T00:32:00.782Z,17.83
2022-08-03T00:34:36.616Z,15.60
2022-08-03T00:37:19.925Z,20.00
2022-08-03T00:39:48.132Z,13.88
2022-08-03T00:42:16.987Z,13.30
2022-08-03T00:44:46.148Z,16.48
2022-08-03T00:47:14.277Z,17.02
2022-08-03T00:49:44.048Z,14.38
2022-08-03T00:52:14.609Z,15.85
2022-08-03T00:54:42.737Z,15.00
2022-08-03T00:57:10.837Z,18.50
2022-08-03T00:59:39.724Z,16.30
2022-08-03T01:02:07.867Z,17.48
2022-08-03T01:04:35.914Z,17.83
2022-08-03T01:07:12.909Z,24.67
2022-08-03T01:09:53.716Z,17.55
2022-08-03T01:12:30.103Z,20.95
2022-08-03T01:15:08.700Z,16.73
2022-08-03T01:17:45.035Z,16.35
2022-08-03T01:20:18.504Z,17.63
2022-08-03T01:23:16.275Z,19.13
2022-08-03T01:26:04.567Z,17.98
2022-08-03T01:28:57.711Z,16.88
2022-08-03T01:31:31.092Z,16.55
2022-08-03T01:34:03.623Z,17.75
2022-08-03T01:36:40.546Z,17.98
2022-08-03T01:39:11.516Z,18.58
2022-08-03T01:41:47.689Z,17.40
2022-08-03T01:44:29.001Z,14.65
2022-08-03T01:47:01.956Z,16.55
2022-08-03T01:49:33.073Z,17.98
2022-08-03T01:52:04.852Z,18.15
2022-08-03T01:54:36.728Z,22.38
2022-08-03T01:57:05.830Z,18.48
2022-08-03T01:59:36.739Z,15.95
2022-08-03T02:02:28.473Z,19.85
2022-08-03T02:04:58.052Z,16.55
2022-08-03T02:07:27.149Z,17.60
2022-08-03T02:09:56.859Z,19.20
2022-08-03T02:12:27.366Z,16.02
2022-08-03T02:14:57.516Z,19.33
2022-08-03T02:17:39.386Z,18.38
2022-08-03T02:20:10.146Z,21.25
2022-08-03T02:22:41.606Z,16.00
2022-08-03T02:25:10.954Z,19.35
2022-08-03T02:27:49.900Z,25.65
2022-08-03T02:30:18.111Z,18.98
2022-08-03T02:32:59.056Z,17.63
2022-08-03T02:35:29.282Z,18.17
2022-08-03T02:38:02.131Z,14.93
2022-08-03T02:40:31.487Z,16.13
2022-08-03T02:43:01.763Z,17.90
2022-08-03T02:45:30.717Z,23.70
2022-08-03T02:48:04.072Z,22.00
2022-08-03T02:50:34.555Z,25.00
2022-08-03T02:53:04.204Z,18.52
2022-08-03T02:55:35.976Z,20.05
2022-08-03T02:58:13.575Z,16.20
2022-08-03T03:00:42.374Z,19.45
2022-08-03T03:03:12.605Z,18.98
2022-08-03T03:05:56.153Z,22.48
2022-08-03T03:08:28.616Z,18.42
2022-08-03T03:10:57.952Z,21.05
2022-08-03T03:13:26.522Z,20.10
2022-08-03T03:15:57.670Z,17.27
2022-08-03T03:18:29.448Z,21.73
2022-08-03T03:20:59.083Z,17.73
2022-08-03T03:23:28.911Z,22.08
2022-08-03T03:25:58.593Z,18.50
2022-08-03T03:28:26.894Z,18.85
2022-08-03T03:30:55.058Z,15.63
2022-08-03T03:33:23.992Z,19.88
2022-08-03T03:35:53.903Z,16.05
2022-08-03T03:38:22.230Z,23.13
2022-08-03T03:40:50.483Z,22.40
2022-08-03T03:43:19.567Z,17.50
2022-08-03T03:45:49.019Z,18.15
2022-08-03T03:48:17.230Z,17.98
2022-08-03T03:50:46.341Z,16.15
2022-08-03T03:53:16.743Z,23.55
2022-08-03T03:55:59.332Z,16.92
2022-08-03T03:58:31.960Z,22.42
2022-08-03T04:01:00.263Z,16.05
2022-08-03T04:03:28.579Z,15.30
2022-08-03T04:06:14.153Z,17.25
2022-08-03T04:09:09.567Z,17.35
2022-08-03T04:11:41.618Z,16.80
2022-08-03T04:14:13.116Z,19.30
2022-08-03T04:16:46.108Z,15.75
2022-08-03T04:19:23.118Z,15.32
2022-08-03T04:21:57.136Z,17.60
2022-08-03T04:24:31.565Z,16.95
2022-08-03T04:27:01.957Z,18.58
2022-08-03T04:29:31.980Z,14.90
2022-08-03T04:32:03.120Z,21.52
2022-08-03T04:34:31.727Z,14.57
2022-08-03T04:37:01.926Z,18.08
2022-08-03T04:39:33.348Z,16.80
2022-08-03T04:42:08.052Z,18.83
2022-08-03T04:44:39.548Z,14.82
2022-08-03T04:47:07.912Z,21.15
2022-08-03T04:49:37.950Z,24.13
2022-08-03T04:52:08.448Z,17.35
2022-08-03T04:54:42.862Z,21.85
2022-08-03T04:57:22.921Z,21.00
2022-08-03T04:59:58.320Z,25.02
2022-08-03T05:02:31.688Z,21.00
2022-08-03T05:05:00.362Z,21.83
2022-08-03T05:07:35.396Z,19.92
2022-08-03T05:10:14.866Z,21.45
2022-08-03T05:12:45.978Z,16.73
2022-08-03T05:15:14.269Z,21.23
2022-08-03T05:17:42.951Z,20.77
2022-08-03T05:20:12.677Z,21.27
2022-08-03T05:22:40.819Z,21.05
2022-08-03T05:25:17.791Z,41.30
2022-08-03T05:27:48.871Z,53.03
2022-08-03T05:30:31.532Z,25.45
2022-08-03T05:33:03.047Z,19.48
2022-08-03T05:35:55.788Z,20.83
2022-08-03T05:38:24.146Z,21.48
2022-08-03T05:41:21.187Z,18.33
2022-08-03T05:43:46.701Z,25.20
2022-08-03T05:46:15.197Z,24.45
2022-08-03T05:48:44.027Z,22.38
2022-08-03T05:51:12.373Z,24.50
2022-08-03T05:53:41.157Z,20.25
2022-08-03T05:56:13.697Z,28.83
2022-08-03T05:58:44.215Z,23.83
2022-08-03T06:01:12.371Z,24.60
2022-08-03T06:03:40.479Z,28.27
2022-08-03T06:06:08.821Z,26.10
2022-08-03T06:08:36.925Z,22.35
2022-08-03T06:11:05.182Z,31.05
2022-08-03T06:13:34.834Z,28.95
2022-08-03T06:16:03.160Z,26.77
2022-08-03T06:18:31.326Z,27.50
2022-08-03T06:21:14.405Z,26.10
2022-08-03T06:23:52.851Z,27.33
2022-08-03T06:26:23.051Z,21.88
2022-08-03T06:28:54.181Z,30.85
2022-08-03T06:31:24.029Z,21.60
2022-08-03T06:34:35.242Z,29.73
2022-08-03T06:36:40.638Z,21.08
2022-08-03T06:39:08.763Z,32.15
2022-08-03T06:41:37.530Z,30.38
2022-08-03T06:44:07.817Z,33.05
2022-08-03T06:46:36.824Z,27.27
2022-08-03T06:49:05.031Z,31.05
2022-08-03T06:52:05.826Z,21.30
2022-08-03T06:54:22.515Z,25.48
2022-08-03T06:56:50.841Z,23.13
2022-08-03T07:00:10.364Z,27.00
2022-08-03T07:02:09.808Z,20.90
2022-08-03T07:04:37.874Z,23.92
2022-08-03T07:07:05.998Z,22.88
2022-08-03T07:09:34.747Z,23.10
2022-08-03T07:12:04.074Z,18.45
2022-08-03T07:14:33.530Z,18.92
2022-08-03T07:17:01.573Z,25.52
2022-08-03T07:19:32.723Z,21.10
2022-08-03T07:22:02.281Z,20.92
2022-08-03T07:24:32.527Z,20.27
2022-08-03T07:27:00.583Z,19.33
2022-08-03T07:29:28.655Z,18.67
2022-08-03T07:32:04.783Z,22.65
2022-08-03T07:34:33.526Z,21.48
2022-08-03T07:37:01.630Z,18.08
2022-08-03T07:39:29.667Z,22.15
2022-08-03T07:41:57.816Z,20.27
2022-08-03T07:44:25.871Z,17.95
2022-08-03T07:46:53.895Z,20.55
2022-08-03T07:49:23.356Z,20.17
2022-08-03T07:52:11.515Z,24.15
2022-08-03T07:54:39.713Z,20.30
2022-08-03T07:57:07.829Z,14.98
2022-08-03T08:00:01.845Z,9.27
2022-08-03T08:02:26.347Z,11.93
2022-08-03T08:04:55.751Z,7.88
2022-08-03T08:07:25.280Z,5.97
2022-08-03T08:09:53.353Z,5.63
2022-08-03T08:12:21.559Z,7.22
2022-08-03T08:14:49.787Z,8.38
2022-08-03T08:17:17.841Z,9.32
2022-08-03T08:19:51.225Z,11.75
2022-08-03T08:22:25.852Z,10.10
2022-08-03T08:24:58.425Z,11.02
2022-08-03T08:27:27.036Z,8.43
2022-08-03T08:29:58.063Z,4.72
2022-08-03T08:32:30.693Z,3.53
2022-08-03T08:34:58.748Z,5.47
2022-08-03T08:37:28.263Z,7.80
2022-08-03T08:39:57.484Z,8.02
2022-08-03T08:42:26.823Z,5.28
2022-08-03T08:44:55.896Z,10.75
2022-08-03T08:47:26.803Z,8.38
2022-08-03T08:50:09.190Z,7.78
2022-08-03T08:52:42.682Z,5.57
2022-08-03T08:55:14.427Z,5.03
2022-08-03T08:57:49.291Z,10.75
2022-08-03T09:00:18.534Z,6.75
2022-08-03T09:02:47.553Z,5.00
2022-08-03T09:05:17.288Z,5.88
2022-08-03T09:07:47.967Z,4.05
2022-08-03T09:10:19.725Z,3.17
2022-08-03T09:12:49.930Z,6.38
2022-08-03T09:15:20.123Z,3.47
2022-08-03T09:17:51.099Z,4.32
2022-08-03T09:20:20.933Z,10.35
2022-08-03T09:22:59.224Z,9.70
2022-08-03T09:25:34.471Z,4.53
2022-08-03T09:28:10.845Z,5.07
2022-08-03T09:30:41.174Z,9.15
2022-08-03T09:33:10.482Z,4.10
2022-08-03T09:35:58.145Z,3.38
2022-08-03T09:38:27.711Z,7.32
2022-08-03T09:40:59.827Z,6.05
2022-08-03T09:43:29.541Z,5.00
2022-08-03T09:46:04.474Z,4.60
2022-08-03T09:48:35.001Z,4.50
2022-08-03T09:51:14.257Z,3.38
2022-08-03T09:53:59.613Z,4.55
2022-08-03T09:56:40.188Z,6.22
2022-08-03T09:59:08.438Z,5.78
2022-08-03T10:01:37.460Z,9.18
2022-08-03T10:04:06.064Z,4.03
2022-08-03T10:06:34.192Z,5.05
2022-08-03T10:09:11.482Z,3.80
2022-08-03T10:11:42.045Z,4.13
2022-08-03T10:14:18.781Z,4.00
2022-08-03T10:16:48.111Z,4.93
2022-08-03T10:19:16.876Z,5.15
2022-08-03T10:21:50.520Z,6.03
2022-08-03T10:24:27.149Z,4.53
2022-08-03T10:27:00.905Z,5.43
2022-08-03T10:29:30.095Z,2.92
2022-08-03T10:32:02.661Z,3.25
2022-08-03T10:34:37.662Z,3.80
2022-08-03T10:37:12.433Z,5.35
2022-08-03T10:39:54.299Z,3.65
2022-08-03T10:42:27.544Z,4.82
2022-08-03T10:45:04.993Z,4.07
2022-08-03T10:47:36.153Z,4.30
2022-08-03T10:50:05.297Z,7.25
2022-08-03T10:52:39.508Z,8.30
2022-08-03T10:55:52.991Z,6.20
2022-08-03T10:58:53.373Z,5.22
2022-08-03T11:02:00.008Z,4.82
2022-08-03T11:04:29.794Z,4.47
2022-08-03T11:07:21.463Z,5.45
2022-08-03T11:09:51.170Z,6.95
2022-08-03T11:12:28.978Z,6.22
2022-08-03T11:15:00.712Z,5.18
2022-08-03T11:17:29.029Z,4.35
2022-08-03T11:19:58.484Z,4.18
2022-08-03T11:22:47.225Z,7.25
2022-08-03T11:25:53.630Z,6.78
2022-08-03T11:28:28.100Z,3.67
2022-08-03T11:30:56.247Z,6.20
2022-08-03T11:33:30.732Z,4.28
2022-08-03T11:36:03.212Z,5.93
2022-08-03T11:38:31.555Z,4.57
2022-08-03T11:41:02.625Z,3.38
2022-08-03T11:43:47.663Z,4.03
2022-08-03T11:46:29.473Z,3.58
2022-08-03T11:49:09.903Z,4.45
2022-08-03T11:51:40.315Z,4.93
2022-08-03T11:54:08.915Z,2.45
2022-08-03T11:56:46.677Z,6.75
2022-08-03T11:59:21.760Z,4.85
2022-08-03T12:01:50.627Z,7.78
2022-08-03T12:04:18.897Z,3.40
2022-08-03T12:07:00.473Z,5.70
2022-08-03T12:09:28.624Z,4.28
2022-08-03T12:12:00.168Z,2.13
2022-08-03T12:14:50.374Z,2.92
2022-08-03T12:17:19.503Z,3.53
2022-08-03T12:19:47.918Z,3.17
2022-08-03T12:22:17.110Z,2.60
2022-08-03T12:24:47.243Z,3.03
2022-08-03T12:27:25.449Z,3.35
2022-08-03T12:29:58.570Z,3.67
2022-08-03T12:32:27.797Z,5.10
2022-08-03T12:35:00.187Z,4.65
2022-08-03T12:37:28.838Z,3.03
2022-08-03T12:40:05.087Z,2.55
2022-08-03T12:42:35.753Z,4.00
2022-08-03T12:45:23.930Z,5.55
2022-08-03T12:47:53.701Z,6.45
2022-08-03T12:50:31.552Z,3.78
2022-08-03T12:53:00.423Z,5.07
2022-08-03T12:55:57.163Z,4.70
2022-08-03T12:58:34.344Z,10.55
2022-08-03T13:01:09.929Z,4.45
2022-08-03T13:03:45.754Z,2.70
2022-08-03T13:06:19.775Z,2.97
2022-08-03T13:08:48.398Z,3.40
2022-08-03T13:11:52.631Z,6.30
2022-08-03T13:14:16.667Z,6.85
2022-08-03T13:16:49.803Z,2.72
2022-08-03T13:19:17.919Z,7.28
2022-08-03T13:21:53.690Z,3.55
2022-08-03T13:24:33.394Z,5.97
2022-08-03T13:27:22.519Z,4.63
2022-08-03T13:29:50.522Z,3.00
2022-08-03T13:32:20.441Z,3.95
2022-08-03T13:34:48.616Z,3.45
2022-08-03T13:37:17.459Z,2.63
2022-08-03T13:39:57.422Z,4.15
2022-08-03T13:42:28.690Z,3.35
2022-08-03T13:44:56.775Z,2.63
2022-08-03T13:47:26.346Z,3.45
2022-08-03T13:50:01.151Z,4.15
2022-08-03T13:52:31.537Z,5.25
2022-08-03T13:54:59.952Z,2.95
2022-08-03T13:58:11.812Z,7.15
2022-08-03T14:00:27.725Z,4.65
2022-08-03T14:03:06.548Z,3.55
2022-08-03T14:05:38.829Z,7.28
2022-08-03T14:08:07.848Z,3.15
2022-08-03T14:10:37.670Z,5.50
2022-08-03T14:13:06.321Z,2.78
2022-08-03T14:15:37.462Z,4.40
2022-08-03T14:18:15.756Z,5.93
2022-08-03T14:20:49.005Z,4.72
2022-08-03T14:23:20.234Z,5.10
2022-08-03T14:25:52.038Z,3.67
2022-08-03T14:28:22.592Z,4.78
2022-08-03T14:30:51.798Z,3.53
2022-08-03T14:33:21.360Z,5.75
2022-08-03T14:35:50.141Z,4.43
2022-08-03T14:38:18.461Z,3.17
2022-08-03T14:40:46.752Z,2.78
2022-08-03T14:43:14.968Z,3.88
2022-08-03T14:45:43.074Z,5.75
2022-08-03T14:50:32.161Z,6.47
2022-08-03T14:51:01.861Z,3.55
2022-08-03T14:53:30.195Z,4.10
2022-08-03T14:55:58.361Z,3.97
2022-08-03T14:58:27.071Z,2.83
2022-08-03T15:00:56.312Z,2.55
2022-08-03T15:03:25.586Z,2.83
2022-08-03T15:05:54.727Z,4.25
2022-08-03T15:08:25.587Z,2.30
2022-08-03T15:10:53.992Z,2.20
2022-08-03T15:13:22.166Z,3.70
2022-08-03T15:15:51.797Z,2.63
2022-08-03T15:18:20.405Z,7.03
2022-08-03T15:20:49.533Z,2.65
2022-08-03T15:23:18.784Z,3.55
2022-08-03T15:26:32.398Z,3.88
2022-08-03T15:28:37.530Z,2.40
2022-08-03T15:31:06.758Z,2.30
2022-08-03T15:33:35.189Z,5.38
2022-08-03T15:36:03.875Z,2.33
2022-08-03T15:38:31.943Z,5.10
2022-08-03T15:41:01.366Z,2.60
2022-08-03T15:43:29.577Z,3.17
2022-08-03T15:46:27.827Z,3.05
2022-08-03T15:48:47.352Z,3.00
2022-08-03T15:51:15.939Z,2.33
2022-08-03T15:53:44.005Z,2.20
2022-08-03T15:56:18.230Z,4.57
2022-08-03T15:59:04.579Z,5.57
2022-08-03T16:01:35.140Z,3.25
2022-08-03T16:04:03.247Z,3.58
2022-08-03T16:06:35.361Z,4.28
2022-08-03T16:09:23.156Z,4.80
2022-08-03T16:11:56.422Z,4.43
2022-08-03T16:14:32.412Z,4.65
2022-08-03T16:17:04.267Z,2.17
2022-08-03T16:19:32.325Z,3.03
2022-08-03T16:22:01.578Z,5.55
2022-08-03T16:24:31.566Z,3.50
2022-08-03T16:27:01.010Z,2.30
2022-08-03T16:29:29.791Z,3.35
2022-08-03T16:31:57.915Z,4.82
2022-08-03T16:34:25.942Z,3.75
2022-08-03T16:36:54.663Z,3.47
2022-08-03T16:39:22.800Z,3.65
2022-08-03T16:41:54.455Z,2.50
2022-08-03T16:44:32.111Z,17.42
2022-08-03T16:47:00.666Z,3.97
2022-08-03T16:49:53.957Z,5.03
2022-08-03T16:52:17.829Z,3.10
2022-08-03T16:54:52.761Z,4.20
2022-08-03T16:57:29.978Z,5.55
2022-08-03T17:00:34.640Z,5.80
2022-08-03T17:03:04.343Z,4.75
2022-08-03T17:05:47.413Z,3.67
2022-08-03T17:08:16.174Z,4.63
2022-08-03T17:10:47.101Z,3.35
2022-08-03T17:13:22.101Z,5.00
2022-08-03T17:16:06.443Z,7.90
2022-08-03T17:18:38.841Z,5.70
2022-08-03T17:21:11.683Z,9.77
2022-08-03T17:23:45.364Z,7.78
2022-08-03T17:26:21.670Z,16.63
2022-08-03T17:28:58.227Z,24.95
2022-08-03T17:31:31.082Z,12.23
2022-08-03T17:34:07.006Z,4.78
2022-08-03T17:37:03.306Z,8.15
2022-08-03T17:39:48.501Z,10.13
2022-08-03T17:42:31.123Z,4.15
2022-08-03T17:47:57.143Z,5.32
2022-08-03T17:50:35.418Z,7.47
2022-08-03T17:53:14.435Z,5.00
2022-08-03T17:55:55.940Z,7.22
2022-08-03T17:58:41.532Z,10.77
2022-08-03T18:02:00.802Z,12.98
2022-08-03T18:04:30.208Z,22.70
2022-08-03T18:07:11.759Z,23.48
2022-08-03T18:10:03.613Z,19.65
2022-08-03T18:12:44.028Z,19.42
2022-08-03T18:15:20.956Z,18.30
2022-08-03T18:17:55.736Z,25.83
2022-08-03T18:20:41.241Z,17.55
2022-08-03T18:23:24.729Z,9.52
2022-08-03T18:25:58.100Z,9.32
2022-08-03T18:28:28.756Z,12.90
2022-08-03T18:30:57.199Z,15.57
2022-08-03T18:34:18.878Z,18.00
2022-08-03T18:36:21.983Z,15.35
2022-08-03T18:38:59.767Z,19.40
2022-08-03T18:41:33.706Z,22.58
2022-08-03T18:44:08.087Z,22.40
2022-08-03T18:46:48.503Z,216.50
2022-08-03T18:49:38.234Z,92.82
2022-08-03T18:52:15.831Z,90.45
2022-08-03T18:55:02.376Z,71.50
2022-08-03T18:57:46.441Z,48.42
2022-08-03T19:00:16.302Z,39.25
2022-08-03T19:02:50.357Z,33.80
2022-08-03T19:05:21.468Z,30.00
2022-08-03T19:07:59.826Z,29.70
2022-08-03T19:10:32.687Z,32.40
2022-08-03T19:13:11.561Z,27.77
2022-08-03T19:15:51.555Z,28.83
2022-08-03T19:18:22.512Z,27.15
2022-08-03T19:20:54.682Z,28.70
2022-08-03T19:23:26.346Z,25.52
2022-08-03T19:26:03.688Z,25.48
2022-08-03T19:28:34.466Z,20.42
2022-08-03T19:33:57.235Z,18.45
2022-08-03T19:36:28.640Z,15.82
2022-08-03T19:38:59.199Z,18.92
2022-08-03T19:41:42.253Z,19.90
2022-08-03T19:44:12.390Z,15.60
2022-08-03T19:46:56.517Z,13.45
2022-08-03T19:50:04.785Z,14.43
2022-08-03T19:52:20.924Z,14.35
2022-08-03T19:55:00.517Z,25.00
2022-08-03T19:57:30.387Z,18.38
2022-08-03T19:59:58.905Z,20.73
2022-08-03T20:02:35.353Z,17.33
2022-08-03T20:05:03.496Z,16.95
2022-08-03T20:07:33.028Z,21.63
2022-08-03T20:10:04.716Z,17.77
2022-08-03T20:12:39.030Z,19.17
2022-08-03T20:15:09.165Z,18.20
2022-08-03T20:17:55.275Z,18.10
2022-08-03T20:20:27.261Z,28.40
2022-08-03T20:22:58.077Z,19.67
2022-08-03T20:25:38.228Z,15.88
2022-08-03T20:28:14.278Z,26.70
2022-08-03T20:30:46.525Z,31.05
2022-08-03T20:33:18.306Z,18.17
2022-08-03T20:35:48.904Z,24.55
2022-08-03T20:38:18.704Z,22.02
2022-08-03T20:40:48.764Z,23.70
2022-08-03T20:43:20.094Z,25.42
2022-08-03T20:48:37.195Z,18.52
2022-08-03T20:53:59.524Z,17.58
2022-08-03T20:56:33.779Z,19.83
2022-08-03T20:59:03.653Z,24.45
2022-08-03T21:01:36.152Z,22.75
2022-08-03T21:04:06.934Z,29.17
2022-08-03T21:06:45.532Z,26.02
2022-08-03T21:09:33.453Z,17.80
2022-08-03T21:12:17.793Z,17.05
2022-08-03T21:13:04.166Z,6.47
2022-08-03T21:13:07.509Z,19.52
2022-08-03T21:13:10.183Z,28.33
2022-08-03T21:13:13.572Z,21.08
2022-08-03T21:14:52.770Z,15.70
2022-08-03T21:17:39.867Z,19.50
2022-08-03T21:20:10.762Z,15.13
2022-08-03T21:22:40.738Z,18.17
2022-08-03T21:25:10.241Z,17.60
2022-08-03T21:27:39.934Z,13.30
2022-08-03T21:30:10.826Z,16.50
2022-08-03T21:32:40.242Z,16.75
2022-08-03T21:35:11.338Z,15.10
2022-08-03T21:37:40.071Z,13.95
2022-08-03T21:40:10.776Z,15.20
2022-08-03T21:42:40.826Z,18.35
2022-08-03T21:45:16.599Z,15.70
2022-08-03T21:47:46.614Z,14.50
2022-08-03T21:50:15.061Z,15.77
2022-08-03T21:52:45.017Z,12.13
2022-08-03T21:55:20.598Z,14.35
2022-08-03T21:57:54.340Z,15.88
2022-08-03T22:00:24.025Z,16.45
2022-08-03T22:02:55.558Z,13.80
2022-08-03T22:05:42.361Z,15.75
2022-08-03T22:08:12.491Z,19.10
2022-08-03T22:10:40.846Z,13.25
2022-08-03T22:13:10.280Z,14.13
2022-08-03T22:15:38.390Z,13.00
2022-08-03T22:18:06.638Z,15.38
2022-08-03T22:20:34.925Z,14.27
2022-08-03T22:23:06.426Z,17.77
2022-08-03T22:25:37.047Z,18.50
2022-08-03T22:28:08.494Z,16.70
2022-08-03T22:30:38.464Z,17.58
2022-08-03T22:33:11.546Z,14.48
2022-08-03T22:35:47.640Z,16.15
2022-08-03T22:38:17.778Z,15.52
2022-08-03T22:40:48.262Z,21.08
2022-08-03T22:43:16.602Z,14.55
2022-08-03T22:46:09.320Z,17.20
2022-08-03T22:48:40.627Z,15.15
2022-08-03T22:51:09.581Z,18.10
2022-08-03T22:53:37.853Z,17.60
2022-08-03T22:56:07.576Z,17.83
2022-08-03T22:58:35.667Z,15.88
2022-08-03T23:01:08.326Z,16.92
2022-08-03T23:04:01.221Z,19.85
2022-08-03T23:06:30.848Z,13.40
2022-08-03T23:08:59.168Z,17.73
2022-08-03T23:11:28.262Z,12.07
2022-08-03T23:13:59.826Z,15.05
2022-08-03T23:16:29.974Z,17.38
2022-08-03T23:18:59.325Z,13.88
2022-08-03T23:21:53.567Z,13.80
2022-08-03T23:24:24.612Z,14.75
2022-08-03T23:26:58.726Z,15.55
2022-08-03T23:29:29.578Z,13.75
2022-08-03T23:31:59.636Z,14.88
2022-08-03T23:34:46.548Z,14.10
2022-08-03T23:37:15.402Z,14.18
2022-08-03T23:39:45.931Z,14.32
2022-08-03T23:42:16.214Z,20.75
2022-08-03T23:44:45.165Z,17.38
2022-08-03T23:47:15.046Z,18.38
2022-08-03T23:49:43.309Z,15.48
2022-08-03T23:52:20.167Z,16.08
2022-08-03T23:55:01.034Z,16.63
2022-08-03T23:57:34.790Z,16.05
